DLH3AA EDDM-EDDF
Flight info
| Callsign | DLH3AA |
|---|---|
| Flight time | 0h 40m |
| Altitude | 24000 |
| Route | GIVMI6Q GIVMI Y101 ERNAS T161 DEBHI DEBHI1C |
| Aircraft | A319/M-SDE3FGHIRWY/LB1 |
Departure
| Time | 2026-05-01 12:05 |
|---|---|
| Airport | Munich Airport (EDDM) |
Arrival
| Time | 2026-05-01 12:45 |
|---|---|
| Airport | Frankfurt Main Airport (EDDF) |
| Time | Latitude | Longitude | Altitude | Speed | Heading |
|---|---|---|---|---|---|
| 2026-05-01 11:00 | 48.35303 | 11.79309 | 1467 ft | 0 kts | 263° |
| 2026-05-01 11:46 | 48.35304 | 11.79315 | 1458 ft | 3 kts | 263° |
| 2026-05-01 11:47 | 48.35307 | 11.79355 | 1460 ft | 4 kts | 265° |
| 2026-05-01 11:47 | 48.35308 | 11.79396 | 1457 ft | 4 kts | 269° |
| 2026-05-01 11:47 | 48.35308 | 11.79436 | 1457 ft | 4 kts | 278° |
| 2026-05-01 11:47 | 48.35301 | 11.79472 | 1457 ft | 4 kts | 314° |
| 2026-05-01 11:48 | 48.35292 | 11.79482 | 1458 ft | 1 kts | 353° |
| 2026-05-01 11:48 | 48.35291 | 11.79482 | 1458 ft | 0 kts | 353° |
| 2026-05-01 11:54 | 48.35292 | 11.79482 | 1458 ft | 0 kts | 353° |
| 2026-05-01 11:54 | 48.35302 | 11.79481 | 1460 ft | 3 kts | 354° |
| 2026-05-01 11:54 | 48.35333 | 11.79497 | 1461 ft | 6 kts | 27° |
| 2026-05-01 11:55 | 48.35378 | 11.79529 | 1461 ft | 7 kts | 20° |
| 2026-05-01 11:55 | 48.35431 | 11.79526 | 1463 ft | 8 kts | 353° |
| 2026-05-01 11:55 | 48.35488 | 11.79516 | 1467 ft | 9 kts | 353° |
| 2026-05-01 11:55 | 48.35549 | 11.79506 | 1464 ft | 9 kts | 353° |
| 2026-05-01 11:56 | 48.35613 | 11.79494 | 1467 ft | 9 kts | 354° |
| 2026-05-01 11:56 | 48.35680 | 11.79483 | 1463 ft | 10 kts | 353° |
| 2026-05-01 11:56 | 48.35755 | 11.79471 | 1464 ft | 11 kts | 353° |
| 2026-05-01 11:56 | 48.35833 | 11.79456 | 1462 ft | 11 kts | 353° |
| 2026-05-01 11:57 | 48.35885 | 11.79420 | 1463 ft | 8 kts | 309° |
| 2026-05-01 11:57 | 48.35912 | 11.79362 | 1463 ft | 4 kts | 318° |
| 2026-05-01 11:57 | 48.35929 | 11.79350 | 1464 ft | 0 kts | 341° |
| 2026-05-01 11:59 | 48.35929 | 11.79349 | 1464 ft | 0 kts | 341° |
| 2026-05-01 11:59 | 48.35940 | 11.79346 | 1467 ft | 5 kts | 350° |
| 2026-05-01 12:00 | 48.36075 | 11.79290 | 1461 ft | 11 kts | 306° |
| 2026-05-01 12:00 | 48.36079 | 11.79177 | 1468 ft | 11 kts | 264° |
| 2026-05-01 12:00 | 48.36062 | 11.78943 | 1460 ft | 12 kts | 263° |
| 2026-05-01 12:01 | 48.36052 | 11.78818 | 1468 ft | 12 kts | 263° |
| 2026-05-01 12:01 | 48.36042 | 11.78686 | 1467 ft | 13 kts | 263° |
| 2026-05-01 12:01 | 48.36031 | 11.78544 | 1467 ft | 15 kts | 263° |
| 2026-05-01 12:01 | 48.36019 | 11.78386 | 1463 ft | 15 kts | 263° |
| 2026-05-01 12:02 | 48.36006 | 11.78214 | 1467 ft | 18 kts | 263° |
| 2026-05-01 12:02 | 48.35991 | 11.78017 | 1460 ft | 20 kts | 263° |
| 2026-05-01 12:02 | 48.35976 | 11.77814 | 1463 ft | 19 kts | 263° |
| 2026-05-01 12:02 | 48.35987 | 11.77677 | 1465 ft | 10 kts | 329° |
| 2026-05-01 12:03 | 48.36058 | 11.77658 | 1464 ft | 12 kts | 354° |
| 2026-05-01 12:03 | 48.36143 | 11.77704 | 1465 ft | 14 kts | 42° |
| 2026-05-01 12:03 | 48.36213 | 11.77838 | 1463 ft | 21 kts | 53° |
| 2026-05-01 12:03 | 48.36323 | 11.78055 | 1462 ft | 28 kts | 51° |
| 2026-05-01 12:04 | 48.36396 | 11.78317 | 1462 ft | 27 kts | 84° |
| 2026-05-01 12:04 | 48.36427 | 11.78691 | 1466 ft | 62 kts | 83° |
| 2026-05-01 12:04 | 48.36501 | 11.79652 | 1464 ft | 126 kts | 83° |
| 2026-05-01 12:04 | 48.36618 | 11.81198 | 1620 ft | 160 kts | 84° |
| 2026-05-01 12:05 | 48.36740 | 11.82845 | 2347 ft | 158 kts | 84° |
| 2026-05-01 12:05 | 48.37346 | 11.86179 | 3433 ft | 197 kts | 49° |
| 2026-05-01 12:05 | 48.38678 | 11.87105 | 3772 ft | 234 kts | 13° |
| 2026-05-01 12:06 | 48.40398 | 11.87247 | 4349 ft | 262 kts | 2° |
| 2026-05-01 12:06 | 48.42195 | 11.86433 | 5098 ft | 284 kts | 329° |
| 2026-05-01 12:06 | 48.43585 | 11.84239 | 6017 ft | 293 kts | 307° |
| 2026-05-01 12:06 | 48.44792 | 11.81747 | 6879 ft | 296 kts | 308° |
| 2026-05-01 12:07 | 48.46043 | 11.79292 | 7195 ft | 295 kts | 310° |
| 2026-05-01 12:07 | 48.47343 | 11.76874 | 8004 ft | 297 kts | 312° |
| 2026-05-01 12:07 | 48.48653 | 11.74512 | 9042 ft | 298 kts | 313° |
| 2026-05-01 12:07 | 48.50006 | 11.72118 | 10018 ft | 302 kts | 313° |
| 2026-05-01 12:08 | 48.51381 | 11.69701 | 10929 ft | 305 kts | 314° |
| 2026-05-01 12:08 | 48.52763 | 11.67271 | 11867 ft | 306 kts | 313° |
| 2026-05-01 12:08 | 48.54152 | 11.64825 | 12787 ft | 308 kts | 314° |
| 2026-05-01 12:08 | 48.55551 | 11.62357 | 13719 ft | 310 kts | 313° |
| 2026-05-01 12:09 | 48.56960 | 11.59867 | 14569 ft | 314 kts | 314° |
| 2026-05-01 12:09 | 48.58417 | 11.57301 | 14944 ft | 333 kts | 314° |
| 2026-05-01 12:09 | 48.59981 | 11.54553 | 15158 ft | 356 kts | 314° |
| 2026-05-01 12:09 | 48.61594 | 11.51705 | 15674 ft | 365 kts | 314° |
| 2026-05-01 12:10 | 48.63251 | 11.48760 | 16356 ft | 370 kts | 313° |
| 2026-05-01 12:10 | 48.66619 | 11.42743 | 17760 ft | 379 kts | 313° |
| 2026-05-01 12:10 | 48.68331 | 11.39681 | 18456 ft | 384 kts | 313° |
| 2026-05-01 12:11 | 48.72266 | 11.34292 | 19676 ft | 386 kts | 329° |
| 2026-05-01 12:11 | 48.74510 | 11.32034 | 20338 ft | 388 kts | 329° |
| 2026-05-01 12:11 | 48.76765 | 11.29761 | 20987 ft | 391 kts | 329° |
| 2026-05-01 12:12 | 48.79003 | 11.27498 | 21633 ft | 393 kts | 329° |
| 2026-05-01 12:12 | 48.81284 | 11.25183 | 22294 ft | 395 kts | 329° |
| 2026-05-01 12:12 | 48.83576 | 11.22852 | 22942 ft | 398 kts | 328° |
| 2026-05-01 12:12 | 48.85745 | 11.20189 | 23562 ft | 404 kts | 320° |
| 2026-05-01 12:13 | 48.87818 | 11.17298 | 24125 ft | 406 kts | 320° |
| 2026-05-01 12:13 | 48.89902 | 11.14393 | 24318 ft | 407 kts | 320° |
| 2026-05-01 12:13 | 48.91978 | 11.11497 | 24371 ft | 403 kts | 320° |
| 2026-05-01 12:13 | 48.94037 | 11.08623 | 24379 ft | 401 kts | 320° |
| 2026-05-01 12:14 | 48.96084 | 11.05762 | 24377 ft | 400 kts | 320° |
| 2026-05-01 12:14 | 48.98104 | 11.02934 | 24368 ft | 400 kts | 320° |
| 2026-05-01 12:14 | 49.00154 | 11.00064 | 24378 ft | 400 kts | 320° |
| 2026-05-01 12:14 | 49.02204 | 10.97187 | 24398 ft | 401 kts | 320° |
| 2026-05-01 12:15 | 49.04251 | 10.94311 | 24396 ft | 401 kts | 320° |
| 2026-05-01 12:15 | 49.06302 | 10.91429 | 24395 ft | 401 kts | 320° |
| 2026-05-01 12:15 | 49.08351 | 10.88545 | 24396 ft | 401 kts | 320° |
| 2026-05-01 12:15 | 49.10396 | 10.85659 | 24396 ft | 401 kts | 320° |
| 2026-05-01 12:16 | 49.12444 | 10.82766 | 24413 ft | 401 kts | 320° |
| 2026-05-01 12:16 | 49.14491 | 10.79872 | 24413 ft | 401 kts | 320° |
| 2026-05-01 12:16 | 49.16505 | 10.77014 | 24414 ft | 401 kts | 319° |
| 2026-05-01 12:16 | 49.18549 | 10.74109 | 24414 ft | 401 kts | 319° |
| 2026-05-01 12:17 | 49.20579 | 10.71191 | 24414 ft | 401 kts | 319° |
| 2026-05-01 12:17 | 49.22562 | 10.68186 | 24377 ft | 402 kts | 316° |
| 2026-05-01 12:17 | 49.24507 | 10.65112 | 24376 ft | 402 kts | 315° |
| 2026-05-01 12:17 | 49.26433 | 10.62002 | 24370 ft | 402 kts | 316° |
| 2026-05-01 12:18 | 49.28357 | 10.58892 | 24371 ft | 403 kts | 316° |
| 2026-05-01 12:18 | 49.30291 | 10.55787 | 24371 ft | 403 kts | 316° |
| 2026-05-01 12:18 | 49.32233 | 10.52690 | 24373 ft | 403 kts | 316° |
| 2026-05-01 12:18 | 49.34152 | 10.49641 | 24375 ft | 403 kts | 316° |
| 2026-05-01 12:19 | 49.36067 | 10.46498 | 24374 ft | 404 kts | 311° |
| 2026-05-01 12:19 | 49.37726 | 10.43024 | 24305 ft | 400 kts | 307° |
| 2026-05-01 12:19 | 49.39313 | 10.39558 | 23935 ft | 395 kts | 307° |
| 2026-05-01 12:19 | 49.40885 | 10.36112 | 23421 ft | 392 kts | 307° |
| 2026-05-01 12:20 | 49.42445 | 10.32692 | 22917 ft | 390 kts | 307° |
| 2026-05-01 12:20 | 49.43997 | 10.29295 | 22402 ft | 388 kts | 309° |
| 2026-05-01 12:20 | 49.45549 | 10.25901 | 21873 ft | 387 kts | 307° |
| 2026-05-01 12:20 | 49.47091 | 10.22511 | 21362 ft | 386 kts | 307° |
| 2026-05-01 12:21 | 49.48621 | 10.19131 | 20869 ft | 385 kts | 307° |
| 2026-05-01 12:21 | 49.50120 | 10.15811 | 20398 ft | 382 kts | 307° |
| 2026-05-01 12:21 | 49.51632 | 10.12449 | 19910 ft | 381 kts | 306° |
| 2026-05-01 12:21 | 49.53130 | 10.09123 | 19446 ft | 379 kts | 306° |
| 2026-05-01 12:22 | 49.54628 | 10.05803 | 19020 ft | 376 kts | 306° |
| 2026-05-01 12:22 | 49.56116 | 10.02507 | 18573 ft | 374 kts | 306° |
| 2026-05-01 12:22 | 49.57595 | 9.99225 | 18074 ft | 372 kts | 306° |
| 2026-05-01 12:22 | 49.59064 | 9.95962 | 17601 ft | 370 kts | 306° |
| 2026-05-01 12:23 | 49.60524 | 9.92718 | 17144 ft | 367 kts | 306° |
| 2026-05-01 12:23 | 49.61974 | 9.89490 | 16680 ft | 365 kts | 306° |
| 2026-05-01 12:23 | 49.63398 | 9.86318 | 16235 ft | 364 kts | 306° |
| 2026-05-01 12:23 | 49.64832 | 9.83119 | 15808 ft | 361 kts | 306° |
| 2026-05-01 12:24 | 49.66256 | 9.79939 | 15384 ft | 360 kts | 306° |
| 2026-05-01 12:24 | 49.67672 | 9.76768 | 14959 ft | 358 kts | 306° |
| 2026-05-01 12:24 | 49.69082 | 9.73610 | 14548 ft | 356 kts | 305° |
| 2026-05-01 12:24 | 49.70481 | 9.70467 | 14138 ft | 354 kts | 305° |
| 2026-05-01 12:25 | 49.71871 | 9.67333 | 13706 ft | 352 kts | 305° |
| 2026-05-01 12:25 | 49.74618 | 9.61131 | 12836 ft | 348 kts | 305° |
| 2026-05-01 12:25 | 49.75961 | 9.58100 | 12412 ft | 345 kts | 305° |
| 2026-05-01 12:26 | 49.77315 | 9.55050 | 11991 ft | 343 kts | 305° |
| 2026-05-01 12:26 | 49.79999 | 9.48990 | 11092 ft | 340 kts | 304° |
| 2026-05-01 12:26 | 49.81332 | 9.45965 | 10640 ft | 340 kts | 304° |
| 2026-05-01 12:27 | 49.82657 | 9.42952 | 10266 ft | 336 kts | 304° |
| 2026-05-01 12:27 | 49.85197 | 9.37186 | 9997 ft | 312 kts | 303° |
| 2026-05-01 12:28 | 49.86927 | 9.31239 | 9423 ft | 301 kts | 284° |
| 2026-05-01 12:28 | 49.87509 | 9.28143 | 9055 ft | 299 kts | 284° |
| 2026-05-01 12:28 | 49.88685 | 9.21983 | 8310 ft | 295 kts | 285° |
| 2026-05-01 12:29 | 49.89268 | 9.18946 | 7940 ft | 293 kts | 285° |
| 2026-05-01 12:29 | 49.89845 | 9.15926 | 7564 ft | 292 kts | 284° |
| 2026-05-01 12:29 | 49.90982 | 9.09927 | 6857 ft | 288 kts | 284° |
| 2026-05-01 12:30 | 49.92105 | 9.04017 | 6331 ft | 285 kts | 284° |
| 2026-05-01 12:30 | 49.92667 | 9.01060 | 6346 ft | 286 kts | 284° |
| 2026-05-01 12:30 | 49.93233 | 8.98101 | 6345 ft | 286 kts | 284° |
| 2026-05-01 12:31 | 49.93801 | 8.95134 | 6353 ft | 287 kts | 284° |
| 2026-05-01 12:31 | 49.94328 | 8.92389 | 6349 ft | 287 kts | 284° |
| 2026-05-01 12:31 | 49.94903 | 8.89385 | 6350 ft | 286 kts | 284° |
| 2026-05-01 12:31 | 49.95458 | 8.86460 | 6350 ft | 286 kts | 284° |
| 2026-05-01 12:32 | 49.96016 | 8.83495 | 6349 ft | 287 kts | 284° |
| 2026-05-01 12:32 | 49.97136 | 8.77542 | 6356 ft | 287 kts | 284° |
| 2026-05-01 12:32 | 49.97653 | 8.74577 | 6349 ft | 285 kts | 277° |
| 2026-05-01 12:33 | 49.97787 | 8.71530 | 6350 ft | 281 kts | 263° |
| 2026-05-01 12:33 | 49.97465 | 8.68559 | 6354 ft | 278 kts | 250° |
| 2026-05-01 12:33 | 49.96808 | 8.65753 | 6354 ft | 276 kts | 246° |
| 2026-05-01 12:33 | 49.96129 | 8.62954 | 6354 ft | 277 kts | 246° |
| 2026-05-01 12:34 | 49.95464 | 8.60189 | 6351 ft | 276 kts | 246° |
| 2026-05-01 12:34 | 49.94794 | 8.57398 | 6355 ft | 276 kts | 246° |
| 2026-05-01 12:34 | 49.94122 | 8.54603 | 6354 ft | 277 kts | 246° |
| 2026-05-01 12:34 | 49.93449 | 8.51805 | 6352 ft | 276 kts | 246° |
| 2026-05-01 12:35 | 49.92778 | 8.49019 | 6352 ft | 276 kts | 246° |
| 2026-05-01 12:35 | 49.92106 | 8.46226 | 6326 ft | 276 kts | 246° |
| 2026-05-01 12:35 | 49.91433 | 8.43432 | 6328 ft | 277 kts | 246° |
| 2026-05-01 12:35 | 49.90759 | 8.40638 | 6327 ft | 277 kts | 246° |
| 2026-05-01 12:36 | 49.90083 | 8.37845 | 6327 ft | 276 kts | 246° |
| 2026-05-01 12:36 | 49.89406 | 8.35055 | 6324 ft | 276 kts | 246° |
| 2026-05-01 12:36 | 49.88730 | 8.32266 | 6325 ft | 276 kts | 246° |
| 2026-05-01 12:36 | 49.88054 | 8.29479 | 6326 ft | 276 kts | 246° |
| 2026-05-01 12:37 | 49.87380 | 8.26698 | 6323 ft | 276 kts | 246° |
| 2026-05-01 12:37 | 49.86706 | 8.23914 | 6320 ft | 275 kts | 246° |
| 2026-05-01 12:37 | 49.86045 | 8.21194 | 5973 ft | 273 kts | 246° |
| 2026-05-01 12:37 | 49.85399 | 8.18430 | 5572 ft | 274 kts | 251° |
| 2026-05-01 12:38 | 49.85334 | 8.15479 | 5191 ft | 280 kts | 279° |
| 2026-05-01 12:38 | 49.86167 | 8.12764 | 4795 ft | 283 kts | 309° |
| 2026-05-01 12:38 | 49.87705 | 8.10933 | 4443 ft | 279 kts | 335° |
| 2026-05-01 12:38 | 49.89517 | 8.09987 | 4059 ft | 273 kts | 359° |
| 2026-05-01 12:39 | 49.91322 | 8.10535 | 3971 ft | 264 kts | 32° |
| 2026-05-01 12:39 | 49.92678 | 8.12327 | 3975 ft | 259 kts | 59° |
| 2026-05-01 12:39 | 49.93426 | 8.14830 | 3976 ft | 255 kts | 73° |
| 2026-05-01 12:39 | 49.94044 | 8.17392 | 3967 ft | 249 kts | 73° |
| 2026-05-01 12:40 | 49.94635 | 8.19813 | 3969 ft | 229 kts | 73° |
| 2026-05-01 12:40 | 49.95176 | 8.22029 | 3968 ft | 210 kts | 72° |
| 2026-05-01 12:40 | 49.95682 | 8.24117 | 3977 ft | 206 kts | 73° |
| 2026-05-01 12:40 | 49.96183 | 8.26183 | 3904 ft | 200 kts | 73° |
| 2026-05-01 12:41 | 49.96662 | 8.28156 | 3698 ft | 191 kts | 72° |
| 2026-05-01 12:41 | 49.97124 | 8.30063 | 3467 ft | 188 kts | 72° |
| 2026-05-01 12:41 | 49.97588 | 8.31980 | 3209 ft | 189 kts | 72° |
| 2026-05-01 12:41 | 49.98041 | 8.33852 | 2978 ft | 188 kts | 72° |
| 2026-05-01 12:42 | 49.98496 | 8.35732 | 2725 ft | 184 kts | 72° |
| 2026-05-01 12:42 | 49.98937 | 8.37556 | 2475 ft | 177 kts | 72° |
| 2026-05-01 12:42 | 49.99364 | 8.39323 | 2249 ft | 173 kts | 73° |
| 2026-05-01 12:42 | 49.99774 | 8.41023 | 2019 ft | 159 kts | 73° |
| 2026-05-01 12:43 | 50.00138 | 8.42529 | 1807 ft | 142 kts | 74° |
| 2026-05-01 12:43 | 50.00473 | 8.43947 | 1710 ft | 137 kts | 72° |
| 2026-05-01 12:43 | 50.00811 | 8.45344 | 1455 ft | 136 kts | 73° |
| 2026-05-01 12:43 | 50.01143 | 8.46714 | 1289 ft | 133 kts | 74° |
| 2026-05-01 12:44 | 50.01459 | 8.48014 | 1116 ft | 130 kts | 73° |
| 2026-05-01 12:44 | 50.01762 | 8.49265 | 954 ft | 131 kts | 73° |
| 2026-05-01 12:44 | 50.02384 | 8.51840 | 592 ft | 131 kts | 72° |
| 2026-05-01 12:45 | 50.03003 | 8.54478 | 346 ft | 115 kts | 76° |
| 2026-05-01 12:45 | 50.03228 | 8.55392 | 349 ft | 73 kts | 68° |
| 2026-05-01 12:45 | 50.03350 | 8.55895 | 349 ft | 34 kts | 70° |
| 2026-05-01 12:46 | 50.03420 | 8.56157 | 352 ft | 13 kts | 60° |
| 2026-05-01 12:46 | 50.03468 | 8.56268 | 354 ft | 13 kts | 49° |
| 2026-05-01 12:46 | 50.03537 | 8.56372 | 350 ft | 16 kts | 35° |
| 2026-05-01 12:46 | 50.03624 | 8.56483 | 350 ft | 16 kts | 39° |
| 2026-05-01 12:47 | 50.03704 | 8.56584 | 353 ft | 15 kts | 39° |
| 2026-05-01 12:47 | 50.03788 | 8.56656 | 357 ft | 13 kts | 13° |
| 2026-05-01 12:47 | 50.03876 | 8.56675 | 355 ft | 12 kts | 12° |
| 2026-05-01 12:47 | 50.03959 | 8.56703 | 359 ft | 12 kts | 13° |
| 2026-05-01 12:48 | 50.04041 | 8.56730 | 357 ft | 12 kts | 11° |
| 2026-05-01 12:48 | 50.04119 | 8.56753 | 360 ft | 12 kts | 11° |
| 2026-05-01 12:48 | 50.04164 | 8.56767 | 358 ft | 0 kts | 12° |
| 2026-05-01 12:49 | 50.04203 | 8.56780 | 358 ft | 9 kts | 12° |
| 2026-05-01 12:49 | 50.04268 | 8.56802 | 361 ft | 10 kts | 9° |
| 2026-05-01 12:49 | 50.04343 | 8.56825 | 360 ft | 12 kts | 12° |
| 2026-05-01 12:49 | 50.04427 | 8.56839 | 361 ft | 13 kts | 338° |
| 2026-05-01 12:50 | 50.04423 | 8.56709 | 361 ft | 14 kts | 248° |
| 2026-05-01 12:50 | 50.04388 | 8.56564 | 359 ft | 15 kts | 250° |
| 2026-05-01 12:50 | 50.04352 | 8.56408 | 362 ft | 16 kts | 250° |
| 2026-05-01 12:50 | 50.04312 | 8.56242 | 361 ft | 17 kts | 248° |
| 2026-05-01 12:51 | 50.04301 | 8.56095 | 361 ft | 13 kts | 303° |
| 2026-05-01 12:51 | 50.04377 | 8.56037 | 356 ft | 12 kts | 343° |
| 2026-05-01 12:51 | 50.04475 | 8.56210 | 363 ft | 13 kts | 69° |
| 2026-05-01 12:52 | 50.04506 | 8.56341 | 360 ft | 13 kts | 70° |
| 2026-05-01 12:52 | 50.04566 | 8.56486 | 356 ft | 5 kts | 100° |
| 2026-05-01 12:52 | 50.04549 | 8.56532 | 359 ft | 5 kts | 114° |
| 2026-05-01 12:53 | 50.04532 | 8.56589 | 358 ft | 0 kts | 114° |